createdAt,value
2022-08-28T00:01:35.130Z,5.15
2022-08-28T00:04:03.071Z,2.83
2022-08-28T00:06:31.208Z,2.75
2022-08-28T00:08:59.117Z,3.13
2022-08-28T00:11:27.041Z,2.90
2022-08-28T00:13:56.783Z,3.22
2022-08-28T00:16:26.664Z,2.67
2022-08-28T00:18:54.587Z,3.08
2022-08-28T00:21:22.572Z,3.28
2022-08-28T00:23:50.458Z,3.20
2022-08-28T00:26:32.368Z,3.20
2022-08-28T00:29:02.178Z,2.88
2022-08-28T00:31:30.225Z,2.78
2022-08-28T00:33:58.090Z,3.03
2022-08-28T00:36:26.134Z,3.28
2022-08-28T00:38:53.993Z,3.25
2022-08-28T00:41:24.980Z,3.50
2022-08-28T00:44:12.555Z,4.40
2022-08-28T00:46:42.361Z,2.83
2022-08-28T00:49:11.349Z,3.42
2022-08-28T00:51:58.298Z,3.42
2022-08-28T00:54:27.453Z,2.92
2022-08-28T00:56:56.749Z,3.40
2022-08-28T00:59:27.143Z,3.05
2022-08-28T01:01:56.999Z,3.03
2022-08-28T01:04:27.859Z,2.97
2022-08-28T01:06:58.109Z,3.70
2022-08-28T01:09:28.994Z,3.30
2022-08-28T01:12:01.894Z,3.65
2022-08-28T01:14:33.321Z,3.25
2022-08-28T01:17:02.353Z,2.90
2022-08-28T01:19:33.251Z,5.03
2022-08-28T01:22:13.107Z,3.70
2022-08-28T01:24:42.503Z,3.00
2022-08-28T01:27:10.352Z,3.15
2022-08-28T01:29:38.246Z,3.13
2022-08-28T01:32:06.459Z,4.18
2022-08-28T01:34:37.645Z,3.38
2022-08-28T01:37:05.989Z,4.35
2022-08-28T01:39:33.860Z,4.03
2022-08-28T01:42:04.558Z,3.70
2022-08-28T01:44:32.454Z,3.83
2022-08-28T01:47:00.603Z,5.05
2022-08-28T01:49:29.441Z,3.55
2022-08-28T01:51:59.174Z,4.10
2022-08-28T01:54:28.838Z,4.32
2022-08-28T01:56:56.721Z,3.97
2022-08-28T01:59:25.955Z,4.15
2022-08-28T02:01:55.316Z,3.78
2022-08-28T02:04:31.870Z,3.30
2022-08-28T02:07:00.508Z,3.42
2022-08-28T02:09:28.454Z,2.97
2022-08-28T02:11:57.331Z,3.83
2022-08-28T02:14:26.598Z,3.70
2022-08-28T02:16:54.502Z,3.80
2022-08-28T02:19:22.371Z,3.80
2022-08-28T02:21:50.525Z,3.40
2022-08-28T02:24:18.799Z,3.45
2022-08-28T02:26:46.619Z,3.17
2022-08-28T02:29:14.824Z,3.90
2022-08-28T02:31:43.886Z,3.10
2022-08-28T02:34:12.040Z,3.50
2022-08-28T02:36:42.533Z,3.58
2022-08-28T02:39:11.181Z,4.05
2022-08-28T02:41:39.242Z,3.05
2022-08-28T02:44:07.131Z,3.80
2022-08-28T02:46:35.043Z,4.55
2022-08-28T02:49:04.382Z,3.40
2022-08-28T02:51:34.183Z,4.90
2022-08-28T02:54:02.863Z,4.20
2022-08-28T02:56:31.058Z,3.58
2022-08-28T02:58:59.006Z,3.40
2022-08-28T03:01:26.984Z,3.55
2022-08-28T03:03:55.145Z,3.78
2022-08-28T03:06:24.410Z,4.30
2022-08-28T03:08:52.293Z,4.32
2022-08-28T03:11:20.068Z,4.18
2022-08-28T03:13:48.069Z,4.32
2022-08-28T03:16:15.951Z,3.72
2022-08-28T03:18:43.986Z,3.60
2022-08-28T03:21:12.389Z,3.70
2022-08-28T03:23:41.489Z,4.45
2022-08-28T03:26:11.796Z,3.78
2022-08-28T03:28:43.409Z,3.55
2022-08-28T03:31:14.332Z,4.53
2022-08-28T03:33:43.179Z,3.75
2022-08-28T03:36:12.813Z,3.72
2022-08-28T03:38:42.189Z,4.07
2022-08-28T03:41:11.851Z,3.72
2022-08-28T03:43:40.052Z,4.47
2022-08-28T03:46:09.414Z,4.10
2022-08-28T03:48:38.571Z,4.53
2022-08-28T03:51:12.478Z,3.50
2022-08-28T03:53:42.350Z,3.58
2022-08-28T03:56:12.204Z,3.13
2022-08-28T03:58:41.969Z,3.22
2022-08-28T04:01:10.176Z,3.65
2022-08-28T04:03:38.081Z,3.15
2022-08-28T04:06:06.319Z,4.55
2022-08-28T04:08:34.311Z,3.17
2022-08-28T04:11:03.636Z,3.63
2022-08-28T04:13:32.074Z,3.20
2022-08-28T04:16:02.370Z,3.15
2022-08-28T04:18:35.500Z,3.17
2022-08-28T04:21:07.777Z,2.92
2022-08-28T04:23:36.117Z,2.88
2022-08-28T04:26:07.351Z,3.45
2022-08-28T04:28:35.986Z,2.80
2022-08-28T04:31:04.013Z,3.90
2022-08-28T04:33:32.840Z,3.50
2022-08-28T04:36:03.078Z,3.83
2022-08-28T04:38:31.161Z,2.90
2022-08-28T04:40:59.188Z,3.83
2022-08-28T04:43:28.840Z,3.92
2022-08-28T04:45:56.774Z,4.50
2022-08-28T04:48:25.035Z,2.95
2022-08-28T04:50:52.889Z,4.75
2022-08-28T04:53:21.358Z,2.83
2022-08-28T04:55:54.916Z,3.13
2022-08-28T04:58:24.380Z,4.20
2022-08-28T05:00:55.766Z,2.63
2022-08-28T05:03:24.597Z,4.85
2022-08-28T05:05:54.450Z,3.35
2022-08-28T05:08:26.935Z,2.80
2022-08-28T05:10:55.449Z,2.92
2022-08-28T05:13:23.503Z,2.88
2022-08-28T05:15:55.204Z,3.13
2022-08-28T05:18:24.227Z,3.35
2022-08-28T05:20:52.105Z,5.57
2022-08-28T05:23:19.895Z,2.97
2022-08-28T05:25:53.467Z,3.55
2022-08-28T05:28:21.867Z,3.05
2022-08-28T05:30:49.648Z,2.65
2022-08-28T05:33:19.923Z,3.05
2022-08-28T05:35:48.840Z,3.25
2022-08-28T05:38:17.954Z,3.20
2022-08-28T05:40:49.126Z,2.95
2022-08-28T05:43:18.357Z,2.85
2022-08-28T05:45:46.234Z,2.70
2022-08-28T05:48:16.184Z,2.65
2022-08-28T05:50:47.542Z,2.60
2022-08-28T05:53:17.510Z,3.47
2022-08-28T05:55:46.574Z,2.60
2022-08-28T05:58:34.587Z,3.65
2022-08-28T06:01:11.757Z,3.40
2022-08-28T06:03:40.252Z,3.20
2022-08-28T06:06:11.630Z,3.60
2022-08-28T06:08:58.560Z,5.82
2022-08-28T06:11:31.024Z,3.15
2022-08-28T06:14:02.424Z,3.30
2022-08-28T06:16:31.295Z,3.17
2022-08-28T06:19:00.619Z,3.60
2022-08-28T06:21:30.175Z,3.53
2022-08-28T06:23:58.325Z,4.57
2022-08-28T06:26:26.219Z,2.95
2022-08-28T06:28:54.284Z,3.33
2022-08-28T06:31:24.589Z,3.28
2022-08-28T06:33:54.108Z,3.70
2022-08-28T06:36:22.154Z,2.75
2022-08-28T06:38:51.806Z,2.78
2022-08-28T06:41:19.853Z,3.00
2022-08-28T06:43:47.667Z,3.13
2022-08-28T06:46:15.788Z,3.40
2022-08-28T06:48:43.722Z,3.70
2022-08-28T06:51:13.398Z,3.65
2022-08-28T06:53:43.373Z,3.17
2022-08-28T06:56:25.670Z,2.85
2022-08-28T06:58:56.360Z,3.10
2022-08-28T07:01:28.983Z,2.83
2022-08-28T07:03:59.438Z,3.00
2022-08-28T07:06:27.936Z,4.95
2022-08-28T07:08:55.787Z,3.40
2022-08-28T07:11:26.698Z,2.75
2022-08-28T07:13:55.316Z,3.22
2022-08-28T07:16:26.110Z,3.78
2022-08-28T07:18:54.667Z,3.00
2022-08-28T07:21:22.674Z,2.88
2022-08-28T07:23:50.684Z,3.55
2022-08-28T07:26:20.885Z,2.95
2022-08-28T07:28:50.179Z,3.63
2022-08-28T07:31:20.690Z,4.45
2022-08-28T07:33:50.829Z,3.15
2022-08-28T07:36:29.869Z,3.50
2022-08-28T07:38:59.818Z,3.15
2022-08-28T07:41:31.315Z,2.80
2022-08-28T07:44:18.544Z,3.80
2022-08-28T07:46:47.062Z,3.45
2022-08-28T07:49:17.084Z,3.40
2022-08-28T07:51:46.620Z,2.72
2022-08-28T07:54:17.945Z,3.28
2022-08-28T07:56:46.820Z,2.90
2022-08-28T07:59:17.425Z,3.08
2022-08-28T08:01:48.996Z,2.40
2022-08-28T08:04:19.907Z,2.70
2022-08-28T08:06:48.096Z,3.60
2022-08-28T08:09:17.969Z,2.88
2022-08-28T08:11:46.631Z,3.17
2022-08-28T08:14:16.879Z,3.60
2022-08-28T08:16:47.381Z,3.33
2022-08-28T08:19:16.829Z,3.45
2022-08-28T08:21:48.265Z,2.97
2022-08-28T08:24:22.154Z,2.85
2022-08-28T08:26:59.461Z,2.75
2022-08-28T08:29:32.197Z,3.42
2022-08-28T08:32:05.264Z,3.25
2022-08-28T08:34:35.265Z,3.15
2022-08-28T08:37:03.131Z,2.60
2022-08-28T08:39:31.793Z,2.97
2022-08-28T08:42:03.933Z,2.83
2022-08-28T08:44:35.421Z,2.90
2022-08-28T08:47:14.767Z,3.10
2022-08-28T08:49:50.096Z,2.95
2022-08-28T08:52:38.493Z,2.40
2022-08-28T08:55:15.299Z,3.25
2022-08-28T08:57:49.423Z,2.53
2022-08-28T09:00:20.058Z,2.55
2022-08-28T09:02:52.920Z,2.83
2022-08-28T09:05:26.832Z,3.00
2022-08-28T09:07:57.806Z,3.10
2022-08-28T09:10:39.615Z,3.15
2022-08-28T09:13:16.816Z,2.95
2022-08-28T09:15:50.627Z,3.58
2022-08-28T09:18:22.621Z,2.85
2022-08-28T09:20:51.802Z,2.38
2022-08-28T09:23:19.678Z,2.78
2022-08-28T09:25:51.442Z,3.03
2022-08-28T09:28:21.320Z,3.00
2022-08-28T09:31:01.058Z,2.90
2022-08-28T09:33:38.180Z,2.83
2022-08-28T09:36:28.605Z,2.70
2022-08-28T09:39:12.739Z,2.67
2022-08-28T09:42:34.818Z,3.05
2022-08-28T09:45:09.035Z,2.33
2022-08-28T09:47:49.054Z,3.00
2022-08-28T09:50:27.621Z,3.10
2022-08-28T09:52:58.344Z,2.45
2022-08-28T09:55:44.183Z,3.30
2022-08-28T09:58:13.833Z,3.20
2022-08-28T10:00:52.049Z,2.40
2022-08-28T10:03:27.238Z,2.85
2022-08-28T10:06:04.849Z,2.83
2022-08-28T10:08:57.259Z,2.45
2022-08-28T10:11:33.211Z,2.75
2022-08-28T10:14:19.994Z,3.65
2022-08-28T10:16:55.187Z,2.78
2022-08-28T10:19:40.641Z,2.67
2022-08-28T10:22:19.962Z,2.85
2022-08-28T10:25:03.860Z,2.72
2022-08-28T10:27:44.980Z,2.63
2022-08-28T10:30:16.556Z,3.13
2022-08-28T10:33:06.641Z,3.42
2022-08-28T10:35:46.515Z,3.20
2022-08-28T10:38:18.937Z,2.97
2022-08-28T10:40:54.388Z,2.85
2022-08-28T10:43:27.408Z,2.72
2022-08-28T10:45:55.474Z,2.80
2022-08-28T10:48:26.055Z,2.80
2022-08-28T10:50:57.340Z,2.40
2022-08-28T10:53:31.343Z,3.00
2022-08-28T10:56:02.719Z,2.60
2022-08-28T10:58:33.063Z,3.08
2022-08-28T11:01:04.530Z,2.92
2022-08-28T11:03:40.408Z,3.08
2022-08-28T11:06:16.153Z,3.53
2022-08-28T11:08:52.293Z,3.50
2022-08-28T11:11:42.855Z,2.47
2022-08-28T11:14:11.981Z,2.88
2022-08-28T11:16:46.314Z,2.78
2022-08-28T11:19:32.157Z,3.65
2022-08-28T11:22:09.408Z,3.22
2022-08-28T11:24:46.580Z,2.70
2022-08-28T11:27:26.910Z,2.78
2022-08-28T11:30:05.021Z,3.50
2022-08-28T11:32:57.461Z,2.75
2022-08-28T11:35:46.215Z,3.38
2022-08-28T11:38:54.302Z,2.63
2022-08-28T11:41:26.374Z,3.40
2022-08-28T11:44:32.724Z,2.83
2022-08-28T11:47:34.912Z,2.63
2022-08-28T11:50:12.056Z,2.40
2022-08-28T11:53:14.805Z,3.20
2022-08-28T11:56:28.311Z,2.97
2022-08-28T11:59:09.910Z,2.67
2022-08-28T12:01:39.237Z,3.20
2022-08-28T12:04:09.450Z,2.60
2022-08-28T12:06:48.023Z,2.83
2022-08-28T12:09:41.481Z,2.45
2022-08-28T12:12:15.008Z,3.10
2022-08-28T12:15:07.570Z,2.50
2022-08-28T12:17:53.715Z,2.65
2022-08-28T12:20:33.319Z,2.55
2022-08-28T12:23:03.911Z,2.83
2022-08-28T12:25:35.765Z,2.90
2022-08-28T12:28:17.884Z,3.00
2022-08-28T12:30:55.779Z,2.90
2022-08-28T12:33:31.966Z,3.45
2022-08-28T12:36:03.078Z,2.33
2022-08-28T12:38:33.756Z,2.90
2022-08-28T12:41:03.760Z,2.80
2022-08-28T12:43:40.830Z,3.00
2022-08-28T12:46:23.447Z,2.40
2022-08-28T12:48:53.515Z,2.90
2022-08-28T12:51:24.514Z,2.72
2022-08-28T12:53:55.157Z,3.10
2022-08-28T12:56:24.710Z,2.67
2022-08-28T12:58:54.642Z,2.53
2022-08-28T13:01:29.030Z,2.85
2022-08-28T13:03:59.903Z,2.78
2022-08-28T13:06:30.379Z,3.50
2022-08-28T13:09:01.572Z,3.25
2022-08-28T13:11:34.978Z,2.75
2022-08-28T13:14:05.088Z,2.80
2022-08-28T13:16:39.425Z,2.72
2022-08-28T13:19:26.222Z,3.40
2022-08-28T13:22:00.357Z,3.05
2022-08-28T13:24:40.992Z,3.20
2022-08-28T13:27:19.532Z,3.92
2022-08-28T13:30:00.077Z,2.85
2022-08-28T13:32:30.285Z,3.10
2022-08-28T13:35:09.527Z,2.65
2022-08-28T13:37:46.941Z,2.90
2022-08-28T13:40:53.343Z,2.70
2022-08-28T13:43:11.653Z,3.00
2022-08-28T13:45:44.116Z,2.72
2022-08-28T13:48:14.016Z,2.80
2022-08-28T13:50:46.464Z,2.90
2022-08-28T13:53:15.257Z,2.65
2022-08-28T13:55:43.150Z,2.28
2022-08-28T13:58:11.123Z,3.05
2022-08-28T14:00:45.032Z,2.63
2022-08-28T14:03:30.943Z,2.50
2022-08-28T14:05:58.803Z,2.78
2022-08-28T14:08:26.652Z,2.55
2022-08-28T14:10:54.902Z,2.60
2022-08-28T14:13:27.411Z,2.90
2022-08-28T14:15:57.525Z,2.95
2022-08-28T14:18:25.873Z,2.70
2022-08-28T14:20:53.807Z,2.70
2022-08-28T14:23:22.985Z,2.60
2022-08-28T14:25:51.192Z,2.83
2022-08-28T14:28:19.457Z,2.50
2022-08-28T14:30:51.058Z,2.20
2022-08-28T14:33:21.053Z,3.45
2022-08-28T14:35:49.891Z,3.00
2022-08-28T14:38:18.278Z,2.58
2022-08-28T14:40:46.227Z,3.15
2022-08-28T14:43:15.573Z,2.13
2022-08-28T14:45:46.090Z,3.30
2022-08-28T14:48:15.819Z,2.45
2022-08-28T14:50:48.269Z,2.55
2022-08-28T14:53:18.189Z,2.40
2022-08-28T14:55:49.250Z,2.60
2022-08-28T14:58:20.058Z,2.80
2022-08-28T15:00:52.083Z,2.80
2022-08-28T15:03:21.835Z,2.60
2022-08-28T15:06:01.069Z,2.67
2022-08-28T15:08:30.177Z,2.80
2022-08-28T15:11:00.911Z,3.05
2022-08-28T15:13:31.605Z,5.40
2022-08-28T15:16:03.455Z,3.42
2022-08-28T15:18:33.190Z,3.15
2022-08-28T15:21:03.211Z,3.42
2022-08-28T15:23:32.020Z,3.03
2022-08-28T15:26:00.584Z,2.70
2022-08-28T15:28:29.168Z,2.53
2022-08-28T15:30:57.568Z,2.88
2022-08-28T15:33:26.059Z,2.58
2022-08-28T15:35:56.879Z,2.80
2022-08-28T15:38:26.979Z,2.67
2022-08-28T15:41:12.972Z,2.65
2022-08-28T15:43:43.067Z,2.80
2022-08-28T15:46:16.245Z,2.50
2022-08-28T15:48:44.216Z,2.38
2022-08-28T15:51:12.098Z,2.67
2022-08-28T15:53:41.226Z,2.60
2022-08-28T15:56:09.126Z,2.45
2022-08-28T15:58:37.633Z,2.40
2022-08-28T16:01:06.427Z,2.85
2022-08-28T16:03:35.713Z,2.45
2022-08-28T16:06:03.711Z,2.92
2022-08-28T16:08:31.760Z,2.65
2022-08-28T16:11:00.890Z,2.10
2022-08-28T16:13:28.764Z,1.88
2022-08-28T16:15:56.555Z,2.97
2022-08-28T16:18:24.457Z,2.22
2022-08-28T16:20:52.299Z,2.20
2022-08-28T16:23:20.182Z,2.38
2022-08-28T16:25:48.029Z,2.50
2022-08-28T16:28:17.162Z,2.58
2022-08-28T16:30:45.436Z,2.80
2022-08-28T16:33:16.222Z,2.85
2022-08-28T16:35:49.410Z,2.53
2022-08-28T16:38:23.155Z,2.92
2022-08-28T16:40:51.008Z,2.47
2022-08-28T16:43:20.398Z,2.85
2022-08-28T16:45:48.676Z,3.25
2022-08-28T16:48:16.646Z,3.13
2022-08-28T16:50:45.595Z,2.30
2022-08-28T16:53:13.849Z,2.35
2022-08-28T16:55:47.912Z,2.53
2022-08-28T16:58:17.135Z,3.30
2022-08-28T17:00:52.601Z,3.35
2022-08-28T17:03:26.295Z,2.83
2022-08-28T17:05:55.932Z,2.83
2022-08-28T17:08:24.303Z,2.78
2022-08-28T17:10:52.298Z,2.65
2022-08-28T17:13:20.134Z,2.55
2022-08-28T17:15:49.251Z,2.15
2022-08-28T17:18:17.065Z,3.03
2022-08-28T17:21:02.545Z,2.88
2022-08-28T17:23:30.334Z,2.97
2022-08-28T17:25:58.123Z,2.63
2022-08-28T17:28:26.095Z,2.22
2022-08-28T17:30:55.457Z,2.70
2022-08-28T17:33:23.362Z,2.40
2022-08-28T17:35:54.710Z,2.58
2022-08-28T17:38:23.236Z,2.08
2022-08-28T17:40:51.053Z,2.47
2022-08-28T17:43:18.883Z,2.40
2022-08-28T17:45:47.362Z,2.92
2022-08-28T17:48:17.630Z,2.50
2022-08-28T17:50:46.145Z,2.38
2022-08-28T17:53:14.210Z,2.90
2022-08-28T17:55:42.008Z,2.42
2022-08-28T17:58:10.206Z,2.50
2022-08-28T18:00:39.604Z,2.20
2022-08-28T18:03:07.683Z,3.85
2022-08-28T18:05:37.899Z,2.30
2022-08-28T18:08:06.585Z,3.58
2022-08-28T18:10:35.707Z,2.90
2022-08-28T18:13:04.740Z,2.40
2022-08-28T18:15:33.194Z,2.60
2022-08-28T18:18:06.779Z,2.63
2022-08-28T18:20:36.003Z,3.13
2022-08-28T18:23:04.858Z,3.20
2022-08-28T18:25:46.681Z,2.53
2022-08-28T18:28:22.429Z,2.38
2022-08-28T18:30:52.117Z,3.17
2022-08-28T18:33:22.723Z,2.75
2022-08-28T18:35:53.263Z,2.70
2022-08-28T18:38:22.869Z,2.67
2022-08-28T18:40:51.053Z,3.00
2022-08-28T18:43:20.248Z,2.90
2022-08-28T18:45:48.033Z,2.75
2022-08-28T18:48:16.380Z,3.15
2022-08-28T18:50:46.600Z,3.25
2022-08-28T18:53:16.362Z,2.97
2022-08-28T18:55:45.758Z,2.80
2022-08-28T18:58:15.341Z,2.92
2022-08-28T19:00:43.765Z,2.95
2022-08-28T19:03:12.286Z,2.38
2022-08-28T19:05:41.311Z,3.10
2022-08-28T19:08:09.258Z,2.55
2022-08-28T19:10:38.965Z,2.90
2022-08-28T19:13:08.158Z,2.42
2022-08-28T19:15:37.302Z,2.63
2022-08-28T19:18:06.179Z,3.13
2022-08-28T19:20:35.353Z,2.70
2022-08-28T19:23:03.198Z,2.63
2022-08-28T19:25:31.723Z,2.83
2022-08-28T19:28:02.624Z,2.92
2022-08-28T19:30:33.515Z,3.00
2022-08-28T19:33:03.551Z,2.67
2022-08-28T19:35:31.462Z,3.10
2022-08-28T19:37:59.303Z,2.60
2022-08-28T19:40:27.383Z,3.55
2022-08-28T19:42:55.487Z,3.03
2022-08-28T19:45:25.800Z,2.90
2022-08-28T19:47:54.006Z,3.10
2022-08-28T19:50:21.996Z,3.05
2022-08-28T19:52:50.109Z,2.95
2022-08-28T19:55:21.039Z,3.55
2022-08-28T19:57:49.245Z,3.40
2022-08-28T20:00:19.558Z,3.45
2022-08-28T20:02:50.025Z,3.40
2022-08-28T20:05:18.097Z,3.30
2022-08-28T20:07:46.114Z,3.38
2022-08-28T20:10:15.309Z,3.28
2022-08-28T20:12:45.074Z,2.95
2022-08-28T20:15:18.296Z,3.97
2022-08-28T20:17:49.887Z,3.50
2022-08-28T20:20:23.718Z,3.88
2022-08-28T20:22:54.145Z,2.58
2022-08-28T20:25:22.464Z,3.60
2022-08-28T20:27:50.253Z,2.95
2022-08-28T20:30:18.977Z,3.20
2022-08-28T20:32:46.927Z,3.97
2022-08-28T20:35:15.323Z,3.38
2022-08-28T20:37:45.892Z,3.22
2022-08-28T20:40:17.046Z,3.25
2022-08-28T20:42:45.333Z,3.60
2022-08-28T20:45:14.028Z,3.55
2022-08-28T20:47:42.055Z,3.97
2022-08-28T20:50:10.533Z,3.40
2022-08-28T20:52:38.967Z,4.07
2022-08-28T20:55:10.016Z,3.50
2022-08-28T20:57:37.959Z,3.78
2022-08-28T21:00:07.795Z,4.03
2022-08-28T21:02:35.692Z,4.07
2022-08-28T21:05:03.863Z,3.85
2022-08-28T21:07:33.474Z,4.05
2022-08-28T21:10:05.002Z,3.65
2022-08-28T21:12:36.237Z,4.00
2022-08-28T21:15:05.273Z,3.55
2022-08-28T21:17:33.187Z,3.88
2022-08-28T21:20:03.196Z,3.50
2022-08-28T21:22:34.529Z,3.90
2022-08-28T21:25:04.880Z,3.85
2022-08-28T21:27:32.904Z,4.18
2022-08-28T21:30:02.223Z,3.42
2022-08-28T21:32:32.614Z,4.32
2022-08-28T21:35:00.996Z,4.07
2022-08-28T21:37:29.131Z,4.32
2022-08-28T21:39:59.418Z,4.68
2022-08-28T21:42:27.387Z,4.13
2022-08-28T21:44:55.346Z,5.22
2022-08-28T21:47:25.299Z,4.95
2022-08-28T21:49:54.670Z,4.63
2022-08-28T21:52:25.746Z,4.05
2022-08-28T21:54:58.219Z,5.20
2022-08-28T21:57:26.252Z,4.30
2022-08-28T21:59:54.035Z,5.20
2022-08-28T22:02:22.000Z,5.00
2022-08-28T22:04:51.634Z,5.32
2022-08-28T22:07:20.184Z,4.75
2022-08-28T22:09:48.005Z,6.47
2022-08-28T22:12:16.373Z,5.22
2022-08-28T22:14:44.336Z,5.40
2022-08-28T22:17:12.204Z,5.97
2022-08-28T22:19:40.316Z,6.00
2022-08-28T22:22:28.021Z,4.95
2022-08-28T22:24:56.343Z,5.15
2022-08-28T22:27:24.330Z,5.43
2022-08-28T22:29:52.212Z,6.28
2022-08-28T22:32:25.315Z,5.80
2022-08-28T22:34:54.031Z,5.72
2022-08-28T22:37:23.879Z,5.95
2022-08-28T22:39:51.750Z,6.20
2022-08-28T22:42:19.667Z,6.25
2022-08-28T22:44:47.675Z,6.25
2022-08-28T22:47:15.531Z,5.97
2022-08-28T22:49:46.751Z,7.13
2022-08-28T22:52:15.303Z,5.90
2022-08-28T22:54:44.430Z,6.22
2022-08-28T22:57:12.266Z,6.20
2022-08-28T22:59:40.135Z,6.47
2022-08-28T23:02:08.262Z,6.10
2022-08-28T23:04:36.201Z,5.78
2022-08-28T23:07:04.040Z,6.20
2022-08-28T23:09:31.830Z,6.07
2022-08-28T23:12:03.352Z,8.43
2022-08-28T23:14:31.526Z,4.63
2022-08-28T23:16:59.482Z,3.05
2022-08-28T23:19:28.934Z,3.40
2022-08-28T23:21:58.270Z,3.15
2022-08-28T23:24:26.273Z,1.90
2022-08-28T23:26:54.014Z,2.15
2022-08-28T23:29:23.132Z,2.22
2022-08-28T23:31:51.089Z,2.10
2022-08-28T23:34:18.969Z,2.13
2022-08-28T23:36:46.837Z,2.28
2022-08-28T23:39:14.982Z,2.30
2022-08-28T23:41:43.306Z,1.63
2022-08-28T23:44:11.189Z,2.03
2022-08-28T23:46:41.085Z,1.90
2022-08-28T23:49:09.885Z,2.22
2022-08-28T23:51:37.826Z,2.58
2022-08-28T23:54:06.666Z,2.30
2022-08-28T23:56:34.851Z,1.85
2022-08-28T23:59:02.716Z,2.40
